createdAt,value
2024-03-28T00:01:09.146Z,9.36
2024-03-28T00:06:11.810Z,9.34
2024-03-28T00:11:14.406Z,9.31
2024-03-28T00:16:17.003Z,9.25
2024-03-28T00:21:19.684Z,9.20
2024-03-28T00:26:22.208Z,9.13
2024-03-28T00:31:24.920Z,9.04
2024-03-28T00:36:27.546Z,8.98
2024-03-28T00:41:30.150Z,8.95
2024-03-28T00:46:32.782Z,8.91
2024-03-28T00:51:35.324Z,8.86
2024-03-28T00:56:38.036Z,8.82
2024-03-28T01:01:41.104Z,8.79
2024-03-28T01:06:43.737Z,8.78
2024-03-28T01:11:46.318Z,8.76
2024-03-28T01:16:51.403Z,8.74
2024-03-28T01:21:54.068Z,8.71
2024-03-28T01:26:57.696Z,8.71
2024-03-28T01:32:00.325Z,8.74
2024-03-28T01:37:03.077Z,8.75
2024-03-28T01:42:05.662Z,8.73
2024-03-28T01:47:25.861Z,8.69
2024-03-28T01:52:31.850Z,8.62
2024-03-28T01:57:35.111Z,8.58
2024-03-28T02:02:41.355Z,8.53
2024-03-28T02:07:43.962Z,8.49
2024-03-28T02:12:46.778Z,8.47
2024-03-28T02:17:50.953Z,8.51
2024-03-28T02:22:53.558Z,8.58
2024-03-28T02:27:56.222Z,8.62
2024-03-28T02:32:59.117Z,8.63
2024-03-28T02:38:01.786Z,8.64
2024-03-28T02:43:04.677Z,8.64
2024-03-28T02:48:09.145Z,8.63
2024-03-28T02:53:11.885Z,8.65
2024-03-28T02:58:14.442Z,8.67
2024-03-28T03:03:17.033Z,8.67
2024-03-28T03:08:19.839Z,8.65
2024-03-28T03:13:22.600Z,8.62
2024-03-28T03:18:27.977Z,8.57
2024-03-28T03:23:38.796Z,8.54
2024-03-28T03:29:00.182Z,8.56
2024-03-28T03:34:21.562Z,8.64
2024-03-28T03:39:24.920Z,8.71
2024-03-28T03:44:28.308Z,8.74
2024-03-28T03:49:31.046Z,8.73
2024-03-28T03:54:33.750Z,8.71
2024-03-28T03:59:38.338Z,8.72
2024-03-28T04:04:41.313Z,8.76
2024-03-28T04:09:44.010Z,8.88
2024-03-28T04:14:47.259Z,9.04
2024-03-28T04:19:50.103Z,9.20
2024-03-28T04:24:54.707Z,9.34
2024-03-28T04:30:01.865Z,9.46
2024-03-28T04:35:05.884Z,9.55
2024-03-28T04:40:10.282Z,9.62
2024-03-28T04:45:14.096Z,9.68
2024-03-28T04:50:18.174Z,9.75
2024-03-28T04:55:21.624Z,9.82
2024-03-28T05:00:25.695Z,9.88
2024-03-28T05:05:28.648Z,9.91
2024-03-28T05:10:31.548Z,9.95
2024-03-28T05:15:35.631Z,10.00
2024-03-28T05:20:38.276Z,10.04
2024-03-28T05:25:41.019Z,10.09
2024-03-28T05:30:43.848Z,10.10
2024-03-28T05:35:47.039Z,10.14
2024-03-28T05:40:49.704Z,10.23
2024-03-28T05:45:52.351Z,10.33
2024-03-28T05:50:55.490Z,10.37
2024-03-28T05:55:58.192Z,10.34
2024-03-28T06:01:00.974Z,10.31
2024-03-28T06:06:04.320Z,10.31
2024-03-28T06:11:07.418Z,10.38
2024-03-28T06:16:11.431Z,10.45
2024-03-28T06:21:14.228Z,10.47
2024-03-28T06:26:16.904Z,10.50
2024-03-28T06:31:22.617Z,10.61
2024-03-28T06:36:25.265Z,10.80
2024-03-28T06:41:28.731Z,11.05
2024-03-28T06:46:31.446Z,11.23
2024-03-28T06:51:34.181Z,11.41
2024-03-28T06:56:36.870Z,11.55
2024-03-28T07:01:39.615Z,11.84
2024-03-28T07:06:42.474Z,12.16
2024-03-28T07:11:47.041Z,12.44
2024-03-28T07:16:50.146Z,12.67
2024-03-28T07:21:53.149Z,12.89
2024-03-28T07:26:56.123Z,13.13
2024-03-28T07:31:58.746Z,13.34
2024-03-28T07:37:01.755Z,13.34
2024-03-28T07:42:04.961Z,13.18
2024-03-28T07:47:07.572Z,12.95
2024-03-28T07:52:10.270Z,12.72
2024-03-28T07:57:13.158Z,12.51
2024-03-28T08:02:16.141Z,12.44
2024-03-28T08:07:18.893Z,12.47
2024-03-28T08:12:21.608Z,12.52
2024-03-28T08:17:24.215Z,12.51
2024-03-28T08:22:27.035Z,12.52
2024-03-28T08:27:31.168Z,12.57
2024-03-28T08:32:35.666Z,12.57
2024-03-28T08:37:40.374Z,12.58
2024-03-28T08:42:44.267Z,12.65
2024-03-28T08:47:47.188Z,12.80
2024-03-28T08:52:50.714Z,13.18
2024-03-28T08:57:54.183Z,13.48
2024-03-28T09:02:57.067Z,13.71
2024-03-28T09:07:59.852Z,14.10
2024-03-28T09:13:03.087Z,14.68
2024-03-28T09:18:06.890Z,15.12
2024-03-28T09:23:11.352Z,15.28
2024-03-28T09:28:14.808Z,15.34
2024-03-28T09:33:17.597Z,15.35
2024-03-28T09:38:20.315Z,15.46
2024-03-28T09:43:23.405Z,15.94
2024-03-28T09:48:26.863Z,16.32
2024-03-28T09:53:30.934Z,16.75
2024-03-28T09:58:36.354Z,17.38
2024-03-28T10:03:41.879Z,17.88
2024-03-28T10:08:45.597Z,18.22
2024-03-28T10:13:48.495Z,18.22
2024-03-28T10:18:55.384Z,18.30
2024-03-28T10:23:58.238Z,18.37
2024-03-28T10:29:01.624Z,18.56
2024-03-28T10:34:05.082Z,18.90
2024-03-28T10:39:13.012Z,19.08
2024-03-28T10:44:16.706Z,19.11
2024-03-28T10:49:27.138Z,19.01
2024-03-28T10:54:47.286Z,18.95
2024-03-28T10:59:51.554Z,19.18
2024-03-28T11:04:55.821Z,19.44
2024-03-28T11:10:00.593Z,19.65
2024-03-28T11:15:05.546Z,19.85
2024-03-28T11:20:14.970Z,19.95
2024-03-28T11:25:27.637Z,19.83
2024-03-28T11:30:30.415Z,19.70
2024-03-28T11:35:33.710Z,19.58
2024-03-28T11:40:38.207Z,19.59
2024-03-28T11:45:59.368Z,19.84
2024-03-28T11:51:06.822Z,20.03
2024-03-28T11:56:14.479Z,20.05
2024-03-28T12:01:20.030Z,19.98
2024-03-28T12:06:25.118Z,19.54
2024-03-28T12:11:28.981Z,19.15
2024-03-28T12:16:31.853Z,18.93
2024-03-28T12:21:35.411Z,18.74
2024-03-28T12:26:38.147Z,18.60
2024-03-28T12:31:40.893Z,18.51
2024-03-28T12:36:43.561Z,18.24
2024-03-28T12:41:54.361Z,17.83
2024-03-28T12:46:57.270Z,17.40
2024-03-28T12:51:59.874Z,16.97
2024-03-28T12:57:04.596Z,16.63
2024-03-28T13:02:08.068Z,16.46
2024-03-28T13:07:13.323Z,16.37
2024-03-28T13:12:17.061Z,16.35
2024-03-28T13:17:19.753Z,16.37
2024-03-28T13:22:22.465Z,16.55
2024-03-28T13:27:43.443Z,16.75
2024-03-28T13:32:50.832Z,16.80
2024-03-28T13:37:54.032Z,16.97
2024-03-28T13:42:56.769Z,17.27
2024-03-28T13:48:00.219Z,17.40
2024-03-28T13:53:02.874Z,17.34
2024-03-28T13:58:05.659Z,17.24
2024-03-28T14:03:08.431Z,17.37
2024-03-28T14:08:12.138Z,17.58
2024-03-28T14:13:14.823Z,17.55
2024-03-28T14:18:18.763Z,17.33
2024-03-28T14:23:21.397Z,17.26
2024-03-28T14:28:24.901Z,17.46
2024-03-28T14:33:27.609Z,17.75
2024-03-28T14:38:30.289Z,17.79
2024-03-28T14:43:39.030Z,17.77
2024-03-28T14:48:42.357Z,17.74
2024-03-28T14:53:45.014Z,17.67
2024-03-28T14:58:47.604Z,17.52
2024-03-28T15:03:50.240Z,17.30
2024-03-28T15:08:53.002Z,17.08
2024-03-28T15:13:55.672Z,17.00
2024-03-28T15:18:59.472Z,16.90
2024-03-28T15:24:03.464Z,16.69
2024-03-28T15:29:09.296Z,16.36
2024-03-28T15:34:12.175Z,15.97
2024-03-28T15:39:15.097Z,15.44
2024-03-28T15:44:17.697Z,14.79
2024-03-28T15:49:20.330Z,14.21
2024-03-28T15:54:23.070Z,13.77
2024-03-28T15:59:25.805Z,13.47
2024-03-28T16:04:35.288Z,13.27
2024-03-28T16:09:38.062Z,13.13
2024-03-28T16:14:41.103Z,13.07
2024-03-28T16:19:43.957Z,13.06
2024-03-28T16:24:46.838Z,13.04
2024-03-28T16:29:50.234Z,12.96
2024-03-28T16:34:52.949Z,12.80
2024-03-28T16:39:56.424Z,12.56
2024-03-28T16:44:59.234Z,12.32
2024-03-28T16:50:02.345Z,12.05
2024-03-28T16:55:06.324Z,11.80
2024-03-28T17:00:09.591Z,11.58
2024-03-28T17:05:13.956Z,11.41
2024-03-28T17:10:18.470Z,11.25
2024-03-28T17:15:21.142Z,11.10
2024-03-28T17:20:23.909Z,10.98
2024-03-28T17:25:28.930Z,10.92
2024-03-28T17:30:31.682Z,10.84
2024-03-28T17:35:34.421Z,10.76
2024-03-28T17:40:37.585Z,10.70
2024-03-28T17:45:40.764Z,10.69
2024-03-28T17:50:47.024Z,10.68
2024-03-28T17:55:49.895Z,10.65
2024-03-28T18:00:52.629Z,10.65
2024-03-28T18:05:59.930Z,10.63
2024-03-28T18:11:02.610Z,10.58
2024-03-28T18:16:05.855Z,10.53
2024-03-28T18:21:08.582Z,10.49
2024-03-28T18:26:11.310Z,10.42
2024-03-28T18:31:14.018Z,10.33
2024-03-28T18:36:17.572Z,10.27
2024-03-28T18:41:20.329Z,10.19
2024-03-28T18:46:23.049Z,10.09
2024-03-28T18:51:26.272Z,9.99
2024-03-28T18:56:29.855Z,9.92
2024-03-28T19:01:35.384Z,9.87
2024-03-28T19:06:38.331Z,9.79
2024-03-28T19:11:40.978Z,9.72
2024-03-28T19:16:43.662Z,9.68
2024-03-28T19:21:46.414Z,9.67
2024-03-28T19:26:49.318Z,9.67
2024-03-28T19:31:51.997Z,9.63
2024-03-28T19:36:54.796Z,9.53
2024-03-28T19:41:57.584Z,9.41
2024-03-28T19:47:00.189Z,9.29
2024-03-28T19:52:02.856Z,9.17
2024-03-28T19:57:05.698Z,9.05
2024-03-28T20:02:08.405Z,8.90
2024-03-28T20:07:14.304Z,8.75
2024-03-28T20:12:17.399Z,8.62
2024-03-28T20:17:20.859Z,8.51
2024-03-28T20:22:24.579Z,8.38
2024-03-28T20:27:27.226Z,8.21
2024-03-28T20:32:32.485Z,8.05
2024-03-28T20:37:35.790Z,7.94
2024-03-28T20:42:38.407Z,7.85
2024-03-28T20:47:41.103Z,7.78
2024-03-28T20:52:43.874Z,7.69
2024-03-28T20:57:47.488Z,7.61
2024-03-28T21:02:51.210Z,7.55
2024-03-28T21:08:12.571Z,7.52
2024-03-28T21:13:19.671Z,7.49
2024-03-28T21:18:22.859Z,7.45
2024-03-28T21:23:25.515Z,7.41
2024-03-28T21:28:28.674Z,7.39
2024-03-28T21:33:31.269Z,7.37
2024-03-28T21:38:34.771Z,7.34
2024-03-28T21:43:40.986Z,7.28
2024-03-28T21:48:43.603Z,7.23
2024-03-28T21:53:46.476Z,7.21
2024-03-28T21:58:51.102Z,7.25
2024-03-28T22:03:53.736Z,7.36
2024-03-28T22:08:56.614Z,7.44
2024-03-28T22:13:59.252Z,7.49
2024-03-28T22:19:01.932Z,7.55
2024-03-28T22:24:05.312Z,7.67
2024-03-28T22:29:08.016Z,7.85
2024-03-28T22:34:10.659Z,8.07
2024-03-28T22:39:14.055Z,8.32
2024-03-28T22:44:16.600Z,8.53
2024-03-28T22:49:19.167Z,8.71
2024-03-28T22:54:21.819Z,8.82
2024-03-28T22:59:24.444Z,8.90
2024-03-28T23:04:27.023Z,8.95
2024-03-28T23:09:29.626Z,8.98
2024-03-28T23:14:32.228Z,8.98
2024-03-28T23:19:34.916Z,8.99
2024-03-28T23:24:37.566Z,9.00
2024-03-28T23:29:40.791Z,8.99
2024-03-28T23:34:43.370Z,8.95
2024-03-28T23:39:45.991Z,8.93
2024-03-28T23:44:48.721Z,8.91
2024-03-28T23:49:52.141Z,8.86
2024-03-28T23:54:54.728Z,8.79
2024-03-28T23:59:58.663Z,8.76
